Time;durP1;ratioP1;P1;durP2;ratioP2;P2;SDS_P1;SDS_P2;PMS_P1;PMS_P2;Temp;Humidity;BMP_temperature;BMP_pressure;BME280_temperature;BME280_humidity;BME280_pressure;Samples;Min_cycle;Max_cycle;Signal;HPM_P1;HPM_P2
2023/02/05 00:00:18;;;;;;;;;;;;;;;8.00;100.00;101655.19;4903399;28;19923;-91
2023/02/05 00:03:28;;;;;;;;;;;;;;;8.02;100.00;101662.22;4956156;28;19970;-90
2023/02/05 00:06:21;;;;;;;;;;;;;;;8.02;100.00;101655.19;4901150;28;20293;-92
2023/02/05 00:09:14;;;;;;;;;;;;;;;8.00;100.00;101649.03;4974406;28;19925;-87
2023/02/05 00:11:48;;;;;;;;;;;;;;;8.01;100.00;101640.25;4947853;28;19926;-92
2023/02/05 00:14:16;;;;;;;;;;;;;;;7.99;100.00;101644.63;4956454;29;19929;-85
2023/02/05 00:20:00;;;;;;;;;;;;;;;;;;;;;
2023/02/05 00:22:25;;;;;;;;;;;;;;;8.00;100.00;101651.69;4950656;29;19922;-85
2023/02/05 00:25:17;;;;;;;;;;;;;;;8.01;100.00;101640.25;4940202;29;20009;-88
2023/02/05 00:27:48;;;;;;;;;;;;;;;8.01;100.00;101634.97;4925326;29;19930;-90
2023/02/05 00:30:23;;;;;;;;;;;;;;;8.00;100.00;101628.78;4950122;29;20082;-91
2023/02/05 00:32:54;;;;;;;;;;;;;;;8.02;100.00;101641.13;4934056;29;20382;-89
2023/02/05 00:35:40;;;;;;;;;;;;;;;8.00;100.00;101634.06;4926451;29;20041;-92
2023/02/05 00:38:05;;;;;;;;;;;;;;;8.02;100.00;101638.47;4927861;28;19974;-92
2023/02/05 00:40:39;;;;;;;;;;;;;;;8.02;100.00;101633.19;4960386;28;19950;-90
2023/02/05 00:43:34;;;;;;;;;;;;;;;8.03;100.00;101633.19;4972883;28;19933;-87
2023/02/05 00:46:32;;;;;;;;;;;;;;;8.02;100.00;101634.06;4957332;29;19919;-89
2023/02/05 00:48:57;;;;;;;;;;;;;;;8.04;100.00;101626.13;4957041;29;19919;-90
2023/02/05 00:51:25;;;;;;;;;;;;;;;8.02;100.00;101623.50;4972417;28;19918;-89
2023/02/05 00:54:13;;;;;;;;;;;;;;;8.04;100.00;101621.75;4975930;28;19929;-87
2023/02/05 00:56:47;;;;;;;;;;;;;;;8.04;100.00;101619.13;4901424;29;20438;-91
2023/02/05 00:59:35;;;;;;;;;;;;;;;8.04;100.00;101623.50;4970754;28;20097;-87
2023/02/05 01:02:14;;;;;;;;;;;;;;;8.04;100.00;101623.50;4936333;29;19923;-91
2023/02/05 01:04:47;;;;;;;;;;;;;;;8.04;100.00;101616.47;4936113;29;19943;-94
2023/02/05 01:07:18;;;;;;;;;;;;;;;8.05;100.00;101615.56;4920916;29;19919;-87
2023/02/05 01:09:56;;;;;;;;;;;;;;;;;;;;;
2023/02/05 01:12:32;;;;;;;;;;;;;;;8.05;100.00;101604.16;4935203;29;19929;-86
2023/02/05 01:17:50;;;;;;;;;;;;;;;8.05;100.00;101602.38;4935191;29;20350;-89
2023/02/05 01:20:16;;;;;;;;;;;;;;;8.06;100.00;101609.41;4919297;29;19938;-87
2023/02/05 01:25:56;;;;;;;;;;;;;;;8.05;100.00;101593.59;4938115;28;19976;-89
2023/02/05 01:28:31;;;;;;;;;;;;;;;8.06;100.00;101590.03;4957506;29;19926;-85
2023/02/05 01:30:59;;;;;;;;;;;;;;;8.08;100.00;101596.22;4961350;28;20413;-87
2023/02/05 01:33:47;;;;;;;;;;;;;;;8.09;100.00;101588.28;4975517;28;19946;-86
2023/02/05 01:36:15;;;;;;;;;;;;;;;8.08;100.00;101593.56;4975157;28;19926;-92
2023/02/05 01:42:36;;;;;;;;;;;;;;;;;;;;;
2023/02/05 01:45:50;;;;;;;;;;;;;;;;;;;;;
2023/02/05 01:48:26;;;;;;;;;;;;;;;8.08;100.00;101594.44;4920166;29;19925;-90
2023/02/05 01:50:58;;;;;;;;;;;;;;;8.08;100.00;101594.44;4917740;29;19939;-91
2023/02/05 01:53:41;;;;;;;;;;;;;;;8.10;100.00;101586.53;4949707;29;19938;-90
2023/02/05 01:56:15;;;;;;;;;;;;;;;8.09;100.00;101575.09;4957115;29;19925;-89
2023/02/05 01:59:19;;;;;;;;;;;;;;;;;;;;;
2023/02/05 02:02:08;;;;;;;;;;;;;;;;;;;;;
2023/02/05 02:05:13;;;;;;;;;;;;;;;;;;;;;
2023/02/05 02:08:15;;;;;;;;;;;;;;;8.09;100.00;101569.81;4950095;29;19918;-90
2023/02/05 02:14:21;;;;;;;;;;;;;;;8.12;100.00;101576.81;4920317;29;20306;-89
2023/02/05 03:25:27;;;;;;;;;;;;;;;8.15;100.00;101516.06;5398564;23;19929;-88
2023/02/05 03:27:53;;;;;;;;;;;;;;;8.13;100.00;101517.84;4973758;28;19926;-88
2023/02/05 03:30:19;;;;;;;;;;;;;;;8.14;100.00;101509.94;4974957;28;20332;-88
2023/02/05 03:32:57;;;;;;;;;;;;;;;8.14;100.00;101501.13;4974990;28;19918;-87
2023/02/05 03:35:44;;;;;;;;;;;;;;;8.14;100.00;101502.00;4975194;28;20508;-88
2023/02/05 03:38:21;;;;;;;;;;;;;;;8.12;100.00;101501.16;4974918;28;19918;-87
2023/02/05 03:41:06;;;;;;;;;;;;;;;8.13;100.00;101502.88;4973637;28;19914;-84
2023/02/05 03:43:34;;;;;;;;;;;;;;;8.14;100.00;101515.22;4974123;28;19919;-83
2023/02/05 03:46:03;;;;;;;;;;;;;;;8.15;100.00;101510.78;4973586;28;20358;-84
2023/02/05 03:48:28;;;;;;;;;;;;;;;8.15;100.00;101514.34;4973380;28;19972;-84
2023/02/05 03:51:08;;;;;;;;;;;;;;;8.16;100.00;101517.84;4974724;28;19922;-85
2023/02/05 03:53:33;;;;;;;;;;;;;;;8.15;100.00;101514.34;4974512;28;20296;-85
2023/02/05 03:56:08;;;;;;;;;;;;;;;8.18;100.00;101534.53;4972013;28;20021;-84
2023/02/05 03:58:41;;;;;;;;;;;;;;;8.18;100.00;101530.16;4974638;28;19918;-87
2023/02/05 04:01:08;;;;;;;;;;;;;;;8.17;100.00;101531.03;4957205;28;20449;-88
2023/02/05 04:03:34;;;;;;;;;;;;;;;8.17;100.00;101531.03;4957200;28;19973;-85
2023/02/05 04:05:59;;;;;;;;;;;;;;;8.18;100.00;101543.38;4957331;28;19919;-84
2023/02/05 04:08:24;;;;;;;;;;;;;;;8.17;100.00;101562.72;4957282;28;20106;-87
2023/02/05 04:10:49;;;;;;;;;;;;;;;8.18;100.00;101553.03;4956341;28;19925;-86
2023/02/05 04:13:15;;;;;;;;;;;;;;;8.18;100.00;101553.03;4957104;28;19972;-87
2023/02/05 04:15:40;;;;;;;;;;;;;;;8.18;100.00;101550.38;4957242;28;20416;-88
2023/02/05 04:18:07;;;;;;;;;;;;;;;8.17;100.00;101557.44;4957326;28;19925;-86
2023/02/05 04:20:32;;;;;;;;;;;;;;;8.17;100.00;101557.44;4974797;28;19918;-85
2023/02/05 04:22:57;;;;;;;;;;;;;;;8.16;100.00;101539.84;4975206;28;19918;-85
2023/02/05 04:25:22;;;;;;;;;;;;;;;8.17;100.00;101557.44;4972980;28;19922;-92
2023/02/05 04:27:48;;;;;;;;;;;;;;;8.17;100.00;101556.56;4974593;28;20008;-88
2023/02/05 04:30:13;;;;;;;;;;;;;;;8.17;100.00;101552.16;4974387;28;20013;-86
2023/02/05 04:32:38;;;;;;;;;;;;;;;8.20;100.00;101556.56;4974385;28;19958;-88
2023/02/05 04:35:04;;;;;;;;;;;;;;;8.18;100.00;101553.94;4974182;28;19961;-84
2023/02/05 04:37:29;;;;;;;;;;;;;;;8.18;100.00;101538.09;4974150;28;19922;-85
2023/02/05 04:39:54;;;;;;;;;;;;;;;8.18;100.00;101531.91;4972873;28;19925;-86
2023/02/05 04:42:19;;;;;;;;;;;;;;;8.18;100.00;101522.25;4974215;28;19925;-85
2023/02/05 04:44:44;;;;;;;;;;;;;;;8.17;100.00;101519.63;4974416;28;19918;-85
2023/02/05 04:47:11;;;;;;;;;;;;;;;8.19;100.00;101510.78;4974197;28;19918;-89
2023/02/05 04:49:37;;;;;;;;;;;;;;;8.18;100.00;101518.69;4974368;28;20317;-90
2023/02/05 04:52:02;;;;;;;;;;;;;;;8.18;100.00;101511.69;4974399;28;19918;-92
2023/02/05 04:54:27;;;;;;;;;;;;;;;8.19;100.00;101518.69;4972884;28;19918;-85
2023/02/05 04:56:52;;;;;;;;;;;;;;;8.21;100.00;101523.09;4976894;28;19918;-84
2023/02/05 04:59:18;;;;;;;;;;;;;;;8.21;100.00;101521.31;4976484;28;19922;-85
2023/02/05 05:01:43;;;;;;;;;;;;;;;8.19;100.00;101523.97;4977670;28;19925;-84
2023/02/05 05:04:08;;;;;;;;;;;;;;;8.20;100.00;101519.59;4977834;28;19961;-87
2023/02/05 05:06:33;;;;;;;;;;;;;;;8.22;100.00;101527.47;4960235;28;20270;-86
2023/02/05 05:08:59;;;;;;;;;;;;;;;8.21;100.00;101538.94;4976207;28;19922;-86
2023/02/05 05:11:24;;;;;;;;;;;;;;;8.22;100.00;101535.41;4960146;28;19969;-85
2023/02/05 05:13:51;;;;;;;;;;;;;;;8.21;100.00;101536.31;4960027;28;19965;-86
2023/02/05 05:16:16;;;;;;;;;;;;;;;8.22;100.00;101536.31;4977402;28;19918;-86
2023/02/05 05:18:41;;;;;;;;;;;;;;;8.21;100.00;101537.16;4977454;28;20285;-85
2023/02/05 05:21:07;;;;;;;;;;;;;;;8.22;100.00;101540.69;4977310;28;20305;-86
2023/02/05 05:23:32;;;;;;;;;;;;;;;8.21;100.00;101541.59;4977279;28;19922;-89
2023/02/05 13:56:14;;;;;;;;;;;;;;;8.31;100.00;101382.16;4975035;28;19953;-90
2023/02/05 13:58:42;;;;;;;;;;;;;;;8.31;100.00;101363.69;4975471;28;19922;-87
2023/02/05 14:01:17;;;;;;;;;;;;;;;8.32;100.00;101376.00;4976571;28;20436;-88
2023/02/05 14:03:56;;;;;;;;;;;;;;;8.30;100.00;101364.59;4976694;28;19949;-92
2023/02/05 14:06:33;;;;;;;;;;;;;;;8.31;100.00;101363.69;4959458;28;19918;-90
2023/02/05 14:09:04;;;;;;;;;;;;;;;8.30;100.00;101356.69;4957921;28;19924;-89
2023/02/05 14:11:42;;;;;;;;;;;;;;;8.31;100.00;101358.41;4959024;28;19965;-88
2023/02/05 14:14:16;;;;;;;;;;;;;;;8.33;100.00;101367.22;4959019;28;19918;-88
2023/02/05 14:16:43;;;;;;;;;;;;;;;8.32;100.00;101360.16;4976483;28;19918;-89
2023/02/05 14:19:08;;;;;;;;;;;;;;;8.32;100.00;101354.88;4958990;28;20386;-89
2023/02/05 14:21:34;;;;;;;;;;;;;;;8.33;100.00;101362.78;4974918;28;19929;-88
2023/02/05 14:24:22;;;;;;;;;;;;;;;8.32;100.00;101368.09;4974925;28;19925;-88
2023/02/05 14:26:59;;;;;;;;;;;;;;;8.31;100.00;101374.25;4976089;28;19925;-89
2023/02/05 14:29:44;;;;;;;;;;;;;;;8.34;100.00;101368.94;4958633;28;19918;-91
2023/02/05 14:32:33;;;;;;;;;;;;;;;8.33;100.00;101373.34;4976064;28;20281;-90
2023/02/05 14:34:58;;;;;;;;;;;;;;;8.31;100.00;101372.50;4958521;28;19926;-94
2023/02/05 14:37:27;;;;;;;;;;;;;;;8.33;100.00;101378.66;4974812;28;20297;-89
2023/02/05 14:39:52;;;;;;;;;;;;;;;8.33;100.00;101377.78;4958786;28;19918;-87
2023/02/05 14:42:19;;;;;;;;;;;;;;;8.33;100.00;101377.78;4958461;28;20297;-87
2023/02/05 14:44:52;;;;;;;;;;;;;;;8.33;100.00;101383.06;4958371;28;19922;-87
2023/02/05 14:47:22;;;;;;;;;;;;;;;8.33;100.00;101388.34;4976025;28;20293;-87
2023/02/05 14:49:48;;;;;;;;;;;;;;;8.34;100.00;101384.78;4958600;28;20029;-90
2023/02/05 14:52:23;;;;;;;;;;;;;;;8.34;100.00;101384.78;4974620;28;19918;-89
2023/02/05 14:54:51;;;;;;;;;;;;;;;8.34;100.00;101392.72;4974361;28;19922;-90
2023/02/05 14:57:28;;;;;;;;;;;;;;;8.34;100.00;101390.97;4975675;28;19925;-88
2023/02/05 14:59:55;;;;;;;;;;;;;;;8.34;100.00;101390.06;4974991;28;19918;-90
2023/02/05 15:02:39;;;;;;;;;;;;;;;8.35;100.00;101397.13;4974861;28;20396;-92
2023/02/05 15:05:05;;;;;;;;;;;;;;;8.34;100.00;101398.00;4958214;28;19918;-87
2023/02/05 15:07:34;;;;;;;;;;;;;;;8.35;100.00;101402.41;4956762;28;20398;-89
2023/02/05 15:10:12;;;;;;;;;;;;;;;8.35;100.00;101402.41;4975435;28;19918;-88
2023/02/05 15:12:38;;;;;;;;;;;;;;;8.35;100.00;101405.03;4958980;28;19922;-89
2023/02/05 15:15:26;;;;;;;;;;;;;;;8.34;100.00;101404.19;4975409;28;20285;-87
2023/02/05 15:17:53;;;;;;;;;;;;;;;8.36;100.00;101405.03;4958278;28;20274;-88
2023/02/05 15:20:30;;;;;;;;;;;;;;;8.35;100.00;101407.69;4958149;28;20388;-88
2023/02/05 15:22:59;;;;;;;;;;;;;;;8.35;100.00;101399.75;4973696;28;19922;-88
2023/02/05 15:25:24;;;;;;;;;;;;;;;8.35;100.00;101402.41;4976253;28;19920;-88
2023/02/05 15:27:54;;;;;;;;;;;;;;;8.36;100.00;101401.53;4975296;28;20383;-90
2023/02/05 15:30:21;;;;;;;;;;;;;;;8.36;100.00;101393.59;4975131;28;19919;-88
2023/02/05 15:33:22;;;;;;;;;;;;;;;8.36;100.00;101406.81;4975418;28;19918;-91
2023/02/05 15:35:51;;;;;;;;;;;;;;;8.35;100.00;101402.41;4880858;29;19924;-92
2023/02/05 15:38:34;;;;;;;;;;;;;;;8.36;100.00;101398.88;4958232;28;19922;-88
2023/02/05 15:41:03;;;;;;;;;;;;;;;8.35;100.00;101394.47;4974701;28;19914;-86
2023/02/05 15:43:28;;;;;;;;;;;;;;;8.35;100.00;101405.03;4957205;28;19925;-94
2023/02/05 15:46:14;;;;;;;;;;;;;;;8.36;100.00;101407.66;4957407;28;19914;-88
2023/02/05 15:48:39;;;;;;;;;;;;;;;8.36;100.00;101402.38;4957716;28;19926;-91
2023/02/05 15:51:16;;;;;;;;;;;;;;;8.35;100.00;101397.97;4974945;28;19915;-89
2023/02/05 15:53:41;;;;;;;;;;;;;;;8.35;100.00;101395.34;4973279;28;19918;-90
2023/02/05 15:56:13;;;;;;;;;;;;;;;8.36;100.00;101391.81;4954019;29;19930;-86
2023/02/05 15:58:41;;;;;;;;;;;;;;;8.35;100.00;101397.13;4954041;29;20322;-88
2023/02/05 16:01:06;;;;;;;;;;;;;;;8.33;100.00;101405.06;4954069;29;19926;-90
2023/02/05 16:03:41;;;;;;;;;;;;;;;8.35;100.00;101402.41;4938168;29;19918;-88
2023/02/05 16:06:16;;;;;;;;;;;;;;;8.36;100.00;101401.53;4953865;29;19962;-90
2023/02/05 16:08:45;;;;;;;;;;;;;;;8.36;100.00;101404.16;4953719;29;19918;-88
2023/02/05 16:11:10;;;;;;;;;;;;;;;8.35;100.00;101399.75;4954029;29;19923;-89
2023/02/05 16:13:36;;;;;;;;;;;;;;;8.35;100.00;101399.75;4935151;29;19922;-88
2023/02/05 16:16:01;;;;;;;;;;;;;;;8.37;100.00;101405.91;4935457;29;20365;-87
2023/02/05 16:18:36;;;;;;;;;;;;;;;8.34;100.00;101396.25;4953991;29;20267;-91
2023/02/05 16:21:05;;;;;;;;;;;;;;;8.34;100.00;101409.47;4953692;29;19918;-90
2023/02/05 16:23:32;;;;;;;;;;;;;;;8.37;100.00;101411.19;4953108;29;19972;-86
2023/02/05 16:26:01;;;;;;;;;;;;;;;8.36;100.00;101415.59;4953775;29;19918;-87
2023/02/05 16:28:26;;;;;;;;;;;;;;;8.36;100.00;101417.38;4953947;29;19965;-90
2023/02/05 16:31:03;;;;;;;;;;;;;;;8.37;100.00;101424.38;4953684;29;19946;-91
2023/02/05 16:33:28;;;;;;;;;;;;;;;8.37;100.00;101425.25;4954924;29;20263;-90
2023/02/05 16:35:54;;;;;;;;;;;;;;;8.37;100.00;101433.19;4955029;29;19949;-88
2023/02/05 16:38:22;;;;;;;;;;;;;;;8.38;100.00;101434.06;4953641;29;19919;-86
2023/02/05 16:40:52;;;;;;;;;;;;;;;8.38;100.00;101444.63;4955206;29;19923;-92
2023/02/05 16:43:37;;;;;;;;;;;;;;;8.39;100.00;101443.72;4955485;29;19918;-90
2023/02/05 16:46:05;;;;;;;;;;;;;;;8.37;100.00;101449.03;4955618;29;19956;-93
2023/02/05 16:48:31;;;;;;;;;;;;;;;8.36;100.00;101449.94;4955231;29;19941;-94
2023/02/05 16:50:56;;;;;;;;;;;;;;;8.36;100.00;101451.72;4957173;28;19915;-87
2023/02/05 16:53:27;;;;;;;;;;;;;;;8.37;100.00;101453.44;4940151;29;19962;-88
2023/02/05 16:55:57;;;;;;;;;;;;;;;8.37;100.00;101448.16;4972970;28;19926;-91
2023/02/05 16:58:24;;;;;;;;;;;;;;;8.37;100.00;101456.09;4977955;28;20400;-88
2023/02/05 17:00:57;;;;;;;;;;;;;;;8.37;100.00;101466.66;4960381;28;20414;-88
2023/02/05 17:03:24;;;;;;;;;;;;;;;8.36;100.00;101480.75;4977659;28;19925;-89
2023/02/05 17:06:01;;;;;;;;;;;;;;;8.37;100.00;101491.28;4960460;28;20008;-89
2023/02/05 17:08:33;;;;;;;;;;;;;;;8.38;100.00;101481.63;4974660;28;19973;-88
2023/02/05 17:11:00;;;;;;;;;;;;;;;8.37;100.00;101472.78;4976333;28;19941;-88
2023/02/05 17:13:42;;;;;;;;;;;;;;;8.36;100.00;101479.00;4978006;28;20397;-94
2023/02/05 17:16:33;;;;;;;;;;;;;;;8.37;100.00;101487.78;4977230;28;20390;-88
2023/02/05 17:19:21;;;;;;;;;;;;;;;8.37;100.00;101503.63;4971788;28;19922;-87
2023/02/05 17:21:47;;;;;;;;;;;;;;;8.37;100.00;101509.78;4967144;28;19965;-89
2023/02/05 17:24:14;;;;;;;;;;;;;;;8.36;100.00;101505.41;4974992;28;19976;-89
2023/02/05 17:26:41;;;;;;;;;;;;;;;8.37;100.00;101508.91;4958839;28;19969;-88
2023/02/05 17:29:08;;;;;;;;;;;;;;;8.37;100.00;101511.56;4974976;28;19926;-91
2023/02/05 17:31:37;;;;;;;;;;;;;;;8.38;100.00;101510.69;4959871;28;19918;-90
2023/02/05 17:34:02;;;;;;;;;;;;;;;8.38;100.00;101508.03;4958507;28;19923;-90
2023/02/05 17:36:30;;;;;;;;;;;;;;;8.37;100.00;101503.63;4970640;28;19930;-90
2023/02/05 17:38:56;;;;;;;;;;;;;;;8.37;100.00;101516.84;4957097;28;20004;-90
2023/02/05 17:44:25;;;;;;;;;;;;;;;8.35;100.00;101514.19;4974000;28;19972;-91
2023/02/05 17:46:52;;;;;;;;;;;;;;;8.36;100.00;101521.25;4947173;29;20281;-87
2023/02/05 17:49:18;;;;;;;;;;;;;;;8.37;100.00;101514.19;4947395;28;19977;-88
2023/02/05 17:51:48;;;;;;;;;;;;;;;8.35;100.00;101514.19;4957919;28;19960;-88
2023/02/05 17:54:17;;;;;;;;;;;;;;;8.36;100.00;101515.09;4953618;28;20132;-89
2023/02/05 17:56:43;;;;;;;;;;;;;;;8.38;100.00;101518.59;4972387;28;19922;-86
2023/02/05 17:59:43;;;;;;;;;;;;;;;8.37;100.00;101514.19;4958248;28;19922;-89
2023/02/05 18:02:09;;;;;;;;;;;;;;;8.37;100.00;101519.47;4926792;28;19945;-90
2023/02/05 18:04:36;;;;;;;;;;;;;;;8.37;100.00;101524.75;4959493;28;20076;-90
2023/02/05 18:07:02;;;;;;;;;;;;;;;8.37;100.00;101532.69;4975230;28;19922;-87
2023/02/05 18:09:27;;;;;;;;;;;;;;;8.38;100.00;101529.16;4976298;28;19922;-86
2023/02/05 18:11:52;;;;;;;;;;;;;;;8.37;100.00;101527.41;4975616;28;20373;-85
2023/02/05 18:14:17;;;;;;;;;;;;;;;8.38;100.00;101531.81;4976296;28;19922;-86
2023/02/05 18:16:43;;;;;;;;;;;;;;;8.38;100.00;101531.81;4974158;28;19918;-88
2023/02/05 18:19:08;;;;;;;;;;;;;;;8.38;100.00;101545.00;4971296;28;19922;-86
2023/02/05 18:21:34;;;;;;;;;;;;;;;8.39;100.00;101540.59;4973667;28;19924;-91
2023/02/05 18:24:00;;;;;;;;;;;;;;;8.37;100.00;101538.84;4956723;28;19922;-88
2023/02/05 18:26:30;;;;;;;;;;;;;;;8.37;100.00;101530.03;4975537;28;20366;-86
2023/02/05 18:28:56;;;;;;;;;;;;;;;8.38;100.00;101539.72;4975936;28;19922;-87
2023/02/05 18:31:21;;;;;;;;;;;;;;;8.38;100.00;101531.81;4976317;28;19925;-88
2023/02/05 18:33:47;;;;;;;;;;;;;;;8.37;100.00;101537.97;4976216;28;20292;-87
2023/02/05 18:36:13;;;;;;;;;;;;;;;8.37;100.00;101540.59;4976051;28;19957;-89
2023/02/05 18:38:39;;;;;;;;;;;;;;;8.39;100.00;101545.88;4974003;28;19925;-89
2023/02/05 18:41:04;;;;;;;;;;;;;;;8.37;100.00;101562.59;4974292;28;19925;-87
2023/02/05 18:43:29;;;;;;;;;;;;;;;8.52;100.00;101561.69;4959992;28;19918;-89
2023/02/05 18:45:55;;;;;;;;;;;;;;;8.44;100.00;101571.44;4953211;29;19922;-86
2023/02/05 18:48:20;;;;;;;;;;;;;;;8.42;100.00;101573.16;4964249;28;19922;-90
2023/02/05 18:50:45;;;;;;;;;;;;;;;8.43;100.00;101576.69;4963507;28;19923;-91
2023/02/05 18:53:46;;;;;;;;;;;;;;;8.42;100.00;101570.50;4964216;28;20385;-90
2023/02/05 18:56:22;;;;;;;;;;;;;;;8.42;100.00;101589.00;4934850;28;20021;-88
2023/02/05 18:58:59;;;;;;;;;;;;;;;8.42;100.00;101588.13;4952333;28;19929;-90
2023/02/05 19:01:25;;;;;;;;;;;;;;;8.42;100.00;101593.41;4956186;28;20341;-91
2023/02/05 19:03:53;;;;;;;;;;;;;;;8.41;100.00;101597.84;4957127;28;20005;-91
2023/02/05 19:06:20;;;;;;;;;;;;;;;8.41;100.00;101603.13;4973473;28;19929;-89
2023/02/05 19:08:49;;;;;;;;;;;;;;;8.41;100.00;101605.75;4973966;28;19925;-90
2023/02/05 19:11:22;;;;;;;;;;;;;;;8.42;100.00;101610.13;4975394;28;19918;-90
2023/02/05 19:14:08;;;;;;;;;;;;;;;8.41;100.00;101611.03;4957374;28;19925;-88
2023/02/05 19:16:35;;;;;;;;;;;;;;;8.39;100.00;101610.16;4976776;28;19925;-91
2023/02/05 19:19:01;;;;;;;;;;;;;;;8.41;100.00;101618.06;4959104;28;19918;-91
2023/02/05 19:21:28;;;;;;;;;;;;;;;8.39;100.00;101612.78;4976531;28;19922;-92
2023/02/05 19:23:54;;;;;;;;;;;;;;;8.41;100.00;101596.94;4975774;28;20294;-92
2023/02/05 19:26:28;;;;;;;;;;;;;;;8.39;100.00;101602.22;4957320;28;19925;-92
2023/02/05 19:29:01;;;;;;;;;;;;;;;8.42;100.00;101591.63;4958335;28;19987;-87
2023/02/05 19:31:27;;;;;;;;;;;;;;;8.42;100.00;101599.56;4975049;28;19922;-92
2023/02/05 19:33:53;;;;;;;;;;;;;;;8.43;100.00;101600.47;4957084;28;19929;-92
2023/02/05 19:36:18;;;;;;;;;;;;;;;8.42;100.00;101594.28;4974932;28;19919;-93
2023/02/05 19:38:44;;;;;;;;;;;;;;;8.43;100.00;101596.09;4958734;28;19926;-95
2023/02/05 19:41:13;;;;;;;;;;;;;;;8.45;100.00;101601.38;4957440;28;19914;-87
2023/02/05 19:43:40;;;;;;;;;;;;;;;8.41;100.00;101603.13;4974673;28;20285;-87
2023/02/05 19:46:06;;;;;;;;;;;;;;;8.42;100.00;101610.13;4974573;28;19918;-88
2023/02/05 19:48:32;;;;;;;;;;;;;;;8.39;100.00;101604.88;4974612;28;19918;-89
2023/02/05 19:51:07;;;;;;;;;;;;;;;8.39;100.00;101615.44;4957418;28;20369;-90
2023/02/05 19:53:33;;;;;;;;;;;;;;;8.37;100.00;101618.06;4973636;28;19972;-92
2023/02/05 19:56:09;;;;;;;;;;;;;;;8.37;100.00;101619.84;4957115;28;19944;-88
2023/02/05 19:58:40;;;;;;;;;;;;;;;8.37;100.00;101611.94;4957315;28;19918;-90
2023/02/05 20:01:13;;;;;;;;;;;;;;;8.39;100.00;101619.84;4957256;28;20289;-93
2023/02/05 20:03:38;;;;;;;;;;;;;;;8.39;100.00;101628.63;4957336;28;19918;-91
2023/02/05 20:06:04;;;;;;;;;;;;;;;8.39;100.00;101620.72;4974581;28;19941;-92
2023/02/05 20:08:29;;;;;;;;;;;;;;;8.39;100.00;101626.00;4956072;28;19919;-90
2023/02/05 20:10:55;;;;;;;;;;;;;;;8.38;100.00;101629.53;4957075;28;19918;-92
2023/02/05 20:13:26;;;;;;;;;;;;;;;8.37;100.00;101628.66;4957161;28;20497;-88
2023/02/05 20:15:52;;;;;;;;;;;;;;;8.37;100.00;101639.22;4974410;28;19925;-87
2023/02/05 20:18:20;;;;;;;;;;;;;;;8.39;100.00;101643.63;4957014;28;19977;-91
2023/02/05 20:20:46;;;;;;;;;;;;;;;8.37;100.00;101641.84;4957070;28;20389;-86
2023/02/05 20:23:11;;;;;;;;;;;;;;;8.38;100.00;101645.38;4973124;28;19918;-91
2023/02/05 20:25:36;;;;;;;;;;;;;;;8.39;100.00;101646.25;4975256;28;19922;-92
2023/02/05 20:28:01;;;;;;;;;;;;;;;8.39;100.00;101649.78;4960975;28;19921;-87
2023/02/05 20:33:11;;;;;;;;;;;;;;;8.39;100.00;101648.91;4978483;28;20025;-88
2023/02/05 20:35:37;;;;;;;;;;;;;;;8.38;100.00;101650.69;4959318;28;20013;-92
2023/02/05 20:38:03;;;;;;;;;;;;;;;8.38;100.00;101655.97;4957921;28;20341;-90
2023/02/05 20:40:28;;;;;;;;;;;;;;;8.39;100.00;101656.81;4948949;28;19922;-91
2023/02/05 20:42:53;;;;;;;;;;;;;;;8.37;100.00;101644.50;4960851;28;19928;-90
2023/02/05 20:45:18;;;;;;;;;;;;;;;8.37;100.00;101651.53;4976722;28;19922;-88
2023/02/05 20:47:44;;;;;;;;;;;;;;;8.37;100.00;101649.78;4977979;28;19925;-89
2023/02/05 20:50:09;;;;;;;;;;;;;;;8.37;100.00;101652.41;4960534;28;19922;-94
2023/02/05 20:52:35;;;;;;;;;;;;;;;8.38;100.00;101653.31;4976139;28;20024;-90
2023/02/05 20:55:01;;;;;;;;;;;;;;;8.37;100.00;101655.06;4976169;28;19977;-92
2023/02/05 20:57:26;;;;;;;;;;;;;;;8.37;100.00;101652.41;4977836;28;19950;-90
2023/02/05 20:59:51;;;;;;;;;;;;;;;8.38;100.00;101671.81;4978103;28;19918;-93
2023/02/05 21:02:18;;;;;;;;;;;;;;;8.37;100.00;101670.03;4977922;28;19918;-93
2023/02/05 21:04:43;;;;;;;;;;;;;;;8.37;100.00;101678.84;4977794;28;20012;-91
2023/02/05 21:07:09;;;;;;;;;;;;;;;8.37;100.00;101681.47;4955472;28;20044;-92
2023/02/05 21:09:34;;;;;;;;;;;;;;;8.38;100.00;101679.72;4959499;28;19961;-92
2023/02/05 21:11:59;;;;;;;;;;;;;;;8.37;100.00;101683.25;4976884;28;20009;-91
2023/02/05 21:14:25;;;;;;;;;;;;;;;8.38;100.00;101687.66;4959518;28;19949;-91
2023/02/05 21:16:50;;;;;;;;;;;;;;;8.38;100.00;101685.00;4959287;28;20304;-91
2023/02/05 21:19:16;;;;;;;;;;;;;;;8.38;100.00;101690.28;4957738;28;19969;-91
2023/02/05 21:21:45;;;;;;;;;;;;;;;8.38;100.00;101685.00;4953614;28;19964;-88
2023/02/05 21:24:11;;;;;;;;;;;;;;;8.37;100.00;101692.03;4973146;28;20005;-90
2023/02/05 21:26:38;;;;;;;;;;;;;;;8.38;100.00;101692.94;4970884;28;19926;-91
2023/02/05 21:29:05;;;;;;;;;;;;;;;8.38;100.00;101700.88;4976146;28;19919;-91
2023/02/05 21:31:34;;;;;;;;;;;;;;;8.36;100.00;101685.03;4975061;28;20385;-90
2023/02/05 21:34:01;;;;;;;;;;;;;;;8.37;100.00;101684.13;4974543;28;19936;-91
2023/02/05 21:36:26;;;;;;;;;;;;;;;8.39;100.00;101688.53;4958469;28;19984;-88
2023/02/05 21:38:51;;;;;;;;;;;;;;;8.39;100.00;101683.25;4951181;28;20397;-88
2023/02/05 21:41:19;;;;;;;;;;;;;;;8.40;100.00;101690.28;4958720;28;19928;-91
2023/02/05 21:43:48;;;;;;;;;;;;;;;8.39;100.00;101694.69;4954470;29;20013;-90
2023/02/05 21:46:14;;;;;;;;;;;;;;;8.39;100.00;101696.44;4958251;28;19929;-90
2023/02/05 21:48:39;;;;;;;;;;;;;;;8.39;100.00;101702.59;4948563;29;19918;-89
2023/02/05 21:51:10;;;;;;;;;;;;;;;8.39;100.00;101699.97;4956885;29;19922;-90
2023/02/05 21:53:35;;;;;;;;;;;;;;;8.40;100.00;101704.38;4938651;29;19925;-90
2023/02/05 21:56:01;;;;;;;;;;;;;;;8.38;100.00;101708.78;4956420;28;20561;-88
2023/02/05 21:58:26;;;;;;;;;;;;;;;8.39;100.00;101697.31;4956715;29;20013;-91
2023/02/05 22:00:51;;;;;;;;;;;;;;;8.40;100.00;101708.78;4939550;29;19988;-90
2023/02/05 22:03:17;;;;;;;;;;;;;;;8.39;100.00;101721.09;4956498;29;19919;-90
2023/02/05 22:05:42;;;;;;;;;;;;;;;8.41;100.00;101723.72;4956680;29;19918;-89
2023/02/05 22:08:08;;;;;;;;;;;;;;;8.40;100.00;101728.16;4965269;28;20285;-91
2023/02/05 22:10:33;;;;;;;;;;;;;;;8.40;100.00;101722.00;4975875;28;20357;-91
2023/02/05 22:12:58;;;;;;;;;;;;;;;8.40;100.00;101725.50;4975837;28;19918;-90
2023/02/05 22:15:23;;;;;;;;;;;;;;;8.39;100.00;101721.09;4955364;28;20412;-90
2023/02/05 22:17:49;;;;;;;;;;;;;;;8.40;100.00;101722.84;4956317;29;19919;-89
2023/02/05 22:20:14;;;;;;;;;;;;;;;8.40;100.00;101720.22;4971150;28;20337;-91
2023/02/05 22:22:39;;;;;;;;;;;;;;;8.41;100.00;101729.91;4941497;29;19919;-91
2023/02/05 22:25:04;;;;;;;;;;;;;;;8.41;100.00;101722.00;4970198;28;20314;-89
2023/02/05 22:27:30;;;;;;;;;;;;;;;8.41;100.00;101727.28;4975317;28;19925;-89
2023/02/05 22:29:56;;;;;;;;;;;;;;;8.41;100.00;101732.56;4975361;28;19918;-91
2023/02/05 22:32:21;;;;;;;;;;;;;;;8.41;100.00;101734.28;4975307;28;19962;-90
2023/02/05 22:34:47;;;;;;;;;;;;;;;8.42;100.00;101730.78;4957060;28;19937;-89
2023/02/05 22:37:15;;;;;;;;;;;;;;;8.41;100.00;101729.91;4974421;28;19922;-87
2023/02/05 22:39:41;;;;;;;;;;;;;;;8.41;100.00;101729.91;4958233;28;19918;-91
2023/02/05 22:42:07;;;;;;;;;;;;;;;8.40;100.00;101728.16;4957860;28;20383;-91
2023/02/05 22:44:32;;;;;;;;;;;;;;;8.42;100.00;101734.28;4958332;28;19949;-92
2023/02/05 22:46:57;;;;;;;;;;;;;;;8.41;100.00;101732.56;4974912;28;20008;-90
2023/02/05 22:49:23;;;;;;;;;;;;;;;8.42;100.00;101741.34;4957651;28;19922;-92
2023/02/05 22:51:49;;;;;;;;;;;;;;;8.42;100.00;101738.72;4974992;28;20408;-90
2023/02/05 22:54:15;;;;;;;;;;;;;;;8.41;100.00;101745.75;4974119;28;20346;-91
2023/02/05 22:56:40;;;;;;;;;;;;;;;8.41;100.00;101740.47;4957248;28;20020;-92
2023/02/05 22:59:06;;;;;;;;;;;;;;;8.41;100.00;101747.50;4957454;28;19977;-92
2023/02/05 23:01:32;;;;;;;;;;;;;;;8.49;100.00;101751.94;4975373;28;19941;-91